createdAt,value
2023-04-29T00:01:14.150Z,99068.91
2023-04-29T00:03:41.019Z,99062.72
2023-04-29T00:06:08.065Z,99065.41
2023-04-29T00:08:34.943Z,99063.22
2023-04-29T00:11:01.567Z,99062.13
2023-04-29T00:13:28.287Z,99070.19
2023-04-29T00:15:55.012Z,99060.28
2023-04-29T00:18:23.939Z,99058.91
2023-04-29T00:20:50.635Z,99058.63
2023-04-29T00:23:17.229Z,99058.56
2023-04-29T00:25:43.870Z,99045.31
2023-04-29T00:28:10.523Z,99039.19
2023-04-29T00:30:37.191Z,99043.44
2023-04-29T00:33:04.079Z,99032.09
2023-04-29T00:35:30.923Z,99045.63
2023-04-29T00:37:58.289Z,99038.53
2023-04-29T00:40:24.970Z,99035.84
2023-04-29T00:42:51.696Z,99029.09
2023-04-29T00:45:18.537Z,99036.25
2023-04-29T00:47:45.280Z,99031.94
2023-04-29T00:50:14.417Z,99033.09
2023-04-29T00:52:42.072Z,99030.06
2023-04-29T00:55:09.152Z,99031.16
2023-04-29T00:57:35.946Z,99034.06
2023-04-29T01:00:03.598Z,99031.84
2023-04-29T01:02:30.699Z,99026.03
2023-04-29T01:04:57.532Z,99028.94
2023-04-29T01:07:31.529Z,99026.25
2023-04-29T01:10:11.021Z,99025.19
2023-04-29T01:12:49.431Z,99021.13
2023-04-29T01:15:22.823Z,99030.81
2023-04-29T01:18:01.722Z,99030.25
2023-04-29T01:20:29.040Z,99038.88
2023-04-29T01:22:55.718Z,99033.84
2023-04-29T01:25:22.537Z,99035.72
2023-04-29T01:28:21.891Z,99027.31
2023-04-29T01:31:09.672Z,99031.63
2023-04-29T01:33:44.747Z,99024.47
2023-04-29T01:36:17.722Z,99023.00
2023-04-29T01:38:58.246Z,99017.66
2023-04-29T01:41:34.414Z,99018.38
2023-04-29T01:44:19.222Z,99016.00
2023-04-29T01:46:54.174Z,99012.34
2023-04-29T01:49:30.118Z,99018.63
2023-04-29T01:51:57.034Z,99018.75
2023-04-29T01:54:24.926Z,99020.81
2023-04-29T01:56:52.269Z,99024.31
2023-04-29T01:59:26.864Z,99020.13
2023-04-29T02:02:10.450Z,99020.13
2023-04-29T02:04:43.768Z,99016.91
2023-04-29T02:07:10.565Z,99020.88
2023-04-29T02:09:37.211Z,99026.31
2023-04-29T02:12:10.131Z,99019.59
2023-04-29T02:14:37.917Z,99021.78
2023-04-29T02:17:05.447Z,99015.34
2023-04-29T02:19:32.458Z,99022.81
2023-04-29T02:21:59.180Z,99022.34
2023-04-29T02:24:26.079Z,99018.19
2023-04-29T02:26:53.262Z,99023.81
2023-04-29T02:29:19.861Z,99020.31
2023-04-29T02:31:46.706Z,99018.53
2023-04-29T02:34:13.344Z,99026.31
2023-04-29T02:36:40.055Z,99030.88
2023-04-29T02:39:06.700Z,99036.00
2023-04-29T02:41:33.670Z,99028.78
2023-04-29T02:44:00.559Z,99034.22
2023-04-29T02:46:29.779Z,99032.59
2023-04-29T02:48:56.456Z,99030.72
2023-04-29T02:51:23.395Z,99027.97
2023-04-29T02:53:50.159Z,99037.47
2023-04-29T02:56:16.916Z,99036.09
2023-04-29T02:58:43.663Z,99032.00
2023-04-29T03:01:10.364Z,99034.22
2023-04-29T03:03:37.856Z,99028.59
2023-04-29T03:06:04.718Z,99023.50
2023-04-29T03:08:31.337Z,99030.41
2023-04-29T03:10:58.799Z,99032.50
2023-04-29T03:13:25.528Z,99034.88
2023-04-29T03:15:52.368Z,99033.56
2023-04-29T03:18:19.011Z,99041.06
2023-04-29T03:20:45.673Z,99029.59
2023-04-29T03:23:12.290Z,99034.69
2023-04-29T03:25:39.072Z,99028.53
2023-04-29T03:28:06.915Z,99031.69
2023-04-29T03:30:34.180Z,99030.41
2023-04-29T03:33:00.948Z,99022.91
2023-04-29T03:35:29.355Z,99016.16
2023-04-29T03:38:16.308Z,99026.91
2023-04-29T03:40:45.503Z,99022.53
2023-04-29T03:43:14.010Z,99021.13
2023-04-29T03:45:41.400Z,99027.22
2023-04-29T03:48:08.345Z,99021.53
2023-04-29T03:50:36.830Z,99033.91
2023-04-29T03:53:03.531Z,99032.75
2023-04-29T03:55:30.756Z,99026.59
2023-04-29T03:57:57.721Z,99044.06
2023-04-29T04:00:26.580Z,99041.38
2023-04-29T04:02:55.744Z,99046.16
2023-04-29T04:05:25.251Z,99045.44
2023-04-29T04:07:56.541Z,99042.44
2023-04-29T04:10:44.031Z,99040.41
2023-04-29T04:13:23.927Z,99048.28
2023-04-29T04:15:51.678Z,99036.28
2023-04-29T04:18:18.412Z,99036.28
2023-04-29T04:20:45.380Z,99038.69
2023-04-29T04:23:12.008Z,99038.47
2023-04-29T04:25:38.961Z,99033.31
2023-04-29T04:28:31.690Z,99039.50
2023-04-29T04:31:04.028Z,99036.00
2023-04-29T04:33:30.990Z,99036.28
2023-04-29T04:35:58.652Z,99039.19
2023-04-29T04:38:26.382Z,99044.56
2023-04-29T04:40:53.125Z,99035.94
2023-04-29T04:43:35.230Z,99042.94
2023-04-29T04:46:15.174Z,99048.06
2023-04-29T04:49:02.180Z,99052.63
2023-04-29T04:51:30.024Z,99043.44
2023-04-29T04:53:56.716Z,99037.56
2023-04-29T04:56:24.521Z,99038.63
2023-04-29T04:58:51.462Z,99039.59
2023-04-29T05:01:18.219Z,99042.03
2023-04-29T05:03:45.330Z,99038.31
2023-04-29T05:06:12.428Z,99033.13
2023-04-29T05:08:41.257Z,99042.06
2023-04-29T05:11:18.892Z,99040.66
2023-04-29T05:13:51.769Z,99043.53
2023-04-29T05:16:18.962Z,99054.28
2023-04-29T05:18:47.510Z,99053.75
2023-04-29T05:21:17.579Z,99050.47
2023-04-29T05:23:44.633Z,99053.25
2023-04-29T05:26:12.297Z,99057.56
2023-04-29T05:28:39.110Z,99059.56
2023-04-29T05:31:07.650Z,99058.94
2023-04-29T05:33:34.447Z,99064.31
2023-04-29T05:36:01.428Z,99059.00
2023-04-29T05:38:29.299Z,99072.34
2023-04-29T05:41:14.299Z,99079.97
2023-04-29T05:43:41.094Z,99071.94
2023-04-29T05:46:08.206Z,99073.56
2023-04-29T05:48:34.985Z,99074.13
2023-04-29T05:51:01.970Z,99073.03
2023-04-29T05:53:28.911Z,99077.91
2023-04-29T05:55:55.824Z,99065.00
2023-04-29T05:58:22.487Z,99070.44
2023-04-29T06:00:49.745Z,99074.50
2023-04-29T06:03:21.404Z,99070.50
2023-04-29T06:05:54.182Z,99079.47
2023-04-29T06:08:47.809Z,99076.81
2023-04-29T06:11:22.489Z,99073.81
2023-04-29T06:13:49.227Z,99081.41
2023-04-29T06:16:16.145Z,99071.09
2023-04-29T06:18:42.806Z,99074.09
2023-04-29T06:21:09.403Z,99085.97
2023-04-29T06:23:36.487Z,99075.44
2023-04-29T06:26:08.054Z,99071.69
2023-04-29T06:28:34.718Z,99076.88
2023-04-29T06:31:01.426Z,99078.72
2023-04-29T06:33:30.396Z,99073.56
2023-04-29T06:35:57.396Z,99077.56
2023-04-29T06:38:42.415Z,99072.88
2023-04-29T06:41:28.345Z,99078.41
2023-04-29T06:44:06.121Z,99074.28
2023-04-29T06:46:59.960Z,99080.41
2023-04-29T06:49:54.823Z,99077.31
2023-04-29T06:52:21.985Z,99078.09
2023-04-29T06:54:48.705Z,99078.16
2023-04-29T06:57:15.493Z,99082.47
2023-04-29T06:59:46.031Z,99082.91
2023-04-29T07:02:13.661Z,99083.22
2023-04-29T07:04:40.506Z,99083.03
2023-04-29T07:07:07.306Z,99079.00
2023-04-29T07:09:34.659Z,99077.09
2023-04-29T07:12:02.742Z,99074.66
2023-04-29T07:14:29.780Z,99063.88
2023-04-29T07:16:56.472Z,99058.16
2023-04-29T07:19:23.464Z,99062.78
2023-04-29T07:21:50.151Z,99057.34
2023-04-29T07:24:16.863Z,99058.97
2023-04-29T07:26:46.443Z,99063.81
2023-04-29T07:29:15.478Z,99065.44
2023-04-29T07:31:42.354Z,99059.44
2023-04-29T07:34:09.015Z,99061.97
2023-04-29T07:36:35.688Z,99060.34
2023-04-29T07:39:02.609Z,99063.97
2023-04-29T07:41:32.327Z,99074.13
2023-04-29T07:43:59.163Z,99078.34
2023-04-29T07:46:25.899Z,99075.00
2023-04-29T07:48:53.142Z,99067.03
2023-04-29T07:51:19.917Z,99082.81
2023-04-29T07:53:46.597Z,99087.34
2023-04-29T07:56:13.416Z,99085.00
2023-04-29T07:58:40.842Z,99085.00
2023-04-29T08:01:12.301Z,99086.91
2023-04-29T08:03:41.653Z,99091.03
2023-04-29T08:06:09.346Z,99090.72
2023-04-29T08:08:36.201Z,99084.47
2023-04-29T08:11:02.921Z,99083.19
2023-04-29T08:13:29.660Z,99087.13
2023-04-29T08:15:56.378Z,99088.06
2023-04-29T08:18:23.338Z,99087.34
2023-04-29T08:20:49.948Z,99079.34
2023-04-29T08:23:16.880Z,99083.63
2023-04-29T08:25:44.042Z,99079.28
2023-04-29T08:28:11.423Z,99082.25
2023-04-29T08:30:41.676Z,99079.91
2023-04-29T08:33:08.982Z,99083.56
2023-04-29T08:35:39.117Z,99083.38
2023-04-29T08:38:06.860Z,99077.00
2023-04-29T08:40:48.490Z,99076.41
2023-04-29T08:43:18.051Z,99071.25
2023-04-29T08:45:45.290Z,99071.97
2023-04-29T08:48:12.552Z,99070.13
2023-04-29T08:50:40.864Z,99066.56
2023-04-29T08:53:08.428Z,99060.81
2023-04-29T08:55:43.534Z,99056.69
2023-04-29T08:58:12.163Z,99068.94
2023-04-29T09:00:43.410Z,99061.69
2023-04-29T09:03:20.308Z,99067.72
2023-04-29T09:05:52.776Z,99064.50
2023-04-29T09:08:21.238Z,99066.38
2023-04-29T09:10:48.004Z,99079.53
2023-04-29T09:13:31.356Z,99092.66
2023-04-29T09:15:58.182Z,99099.44
2023-04-29T09:18:51.060Z,99102.34
2023-04-29T09:21:25.413Z,99116.25
2023-04-29T09:23:56.489Z,99121.88
2023-04-29T09:26:24.293Z,99122.31
2023-04-29T09:29:18.472Z,99142.50
2023-04-29T09:31:46.158Z,99141.78
2023-04-29T09:34:14.291Z,99140.69
2023-04-29T09:36:51.019Z,99141.25
2023-04-29T09:39:19.512Z,99135.25
2023-04-29T09:41:52.291Z,99124.44
2023-04-29T09:44:27.278Z,99110.41
2023-04-29T09:47:05.709Z,99114.16
2023-04-29T09:49:38.527Z,99114.31
2023-04-29T09:52:07.340Z,99127.28
2023-04-29T09:54:36.369Z,99120.47
2023-04-29T09:57:06.609Z,99130.31
2023-04-29T09:59:37.729Z,99132.00
2023-04-29T10:02:10.742Z,99131.84
2023-04-29T10:04:41.122Z,99127.00
2023-04-29T10:07:09.423Z,99107.91
2023-04-29T10:09:38.198Z,99114.81
2023-04-29T10:12:05.425Z,99106.44
2023-04-29T10:14:39.420Z,99112.13
2023-04-29T10:17:11.460Z,99113.44
2023-04-29T10:19:58.799Z,99106.19
2023-04-29T10:22:46.902Z,99095.59
2023-04-29T10:25:18.415Z,99095.00
2023-04-29T10:27:45.980Z,99085.09
2023-04-29T10:30:15.314Z,99082.09
2023-04-29T10:35:20.077Z,99080.59
2023-04-29T10:37:48.659Z,99073.56
2023-04-29T10:40:40.521Z,99068.34
2023-04-29T10:43:07.399Z,99063.47
2023-04-29T10:45:37.702Z,99059.31
2023-04-29T10:48:08.771Z,99058.19
2023-04-29T10:50:43.648Z,99055.22
2023-04-29T10:53:10.413Z,99058.91
2023-04-29T10:55:38.073Z,99054.03
2023-04-29T10:58:05.852Z,99058.03
2023-04-29T11:00:34.899Z,99055.72
2023-04-29T11:03:02.715Z,99041.91
2023-04-29T11:05:30.984Z,99042.63
2023-04-29T11:08:12.959Z,99040.66
2023-04-29T11:10:43.589Z,99034.81
2023-04-29T11:13:24.601Z,99040.09
2023-04-29T11:15:52.488Z,99030.81
2023-04-29T11:18:19.232Z,99048.94
2023-04-29T11:21:04.852Z,99040.16
2023-04-29T11:23:35.102Z,99031.47
2023-04-29T11:26:02.083Z,99029.56
2023-04-29T11:28:31.093Z,99028.38
2023-04-29T11:30:58.573Z,99028.84
2023-04-29T11:33:27.349Z,99019.72
2023-04-29T11:35:54.628Z,99025.63
2023-04-29T11:38:28.707Z,99015.53
2023-04-29T11:40:59.838Z,99005.59
2023-04-29T11:43:26.887Z,99004.00
2023-04-29T11:45:53.899Z,99011.84
2023-04-29T11:48:26.758Z,99015.75
2023-04-29T11:50:56.629Z,99015.53
2023-04-29T11:53:25.939Z,99004.88
2023-04-29T11:55:56.303Z,98997.66
2023-04-29T11:58:23.795Z,99002.28
2023-04-29T12:00:51.841Z,99002.19
2023-04-29T12:03:20.220Z,98987.94
2023-04-29T12:05:57.216Z,98989.19
2023-04-29T12:08:26.035Z,98991.47
2023-04-29T12:10:54.577Z,98983.75
2023-04-29T12:13:23.774Z,98980.78
2023-04-29T12:15:51.797Z,98979.75
2023-04-29T12:18:19.615Z,98978.94
2023-04-29T12:20:48.212Z,98983.16
2023-04-29T12:23:19.068Z,98983.28
2023-04-29T12:25:53.979Z,98982.81
2023-04-29T12:28:21.023Z,98973.88
2023-04-29T12:30:48.716Z,98971.91
2023-04-29T12:33:26.869Z,98972.69
2023-04-29T12:35:56.729Z,98975.84
2023-04-29T12:38:26.974Z,98968.84
2023-04-29T12:40:58.761Z,98974.00
2023-04-29T12:43:36.073Z,98971.84
2023-04-29T12:46:07.966Z,98975.66
2023-04-29T12:48:38.245Z,98975.56
2023-04-29T12:51:05.274Z,98972.38
2023-04-29T12:53:32.506Z,98967.28
2023-04-29T12:55:59.744Z,98969.97
2023-04-29T12:58:30.411Z,98973.00
2023-04-29T13:00:57.947Z,98973.31
2023-04-29T13:03:25.118Z,98968.69
2023-04-29T13:05:53.830Z,98979.81
2023-04-29T13:08:21.109Z,98968.19
2023-04-29T13:10:47.832Z,98965.31
2023-04-29T13:13:14.462Z,98966.53
2023-04-29T13:15:41.379Z,98968.41
2023-04-29T13:18:08.162Z,98967.34
2023-04-29T13:20:41.088Z,98971.38
2023-04-29T13:23:08.694Z,98968.63
2023-04-29T13:25:35.476Z,98966.84
2023-04-29T13:28:02.260Z,98976.81
2023-04-29T13:30:28.922Z,98978.63
2023-04-29T13:33:01.275Z,98977.22
2023-04-29T13:35:31.093Z,98983.59
2023-04-29T13:37:57.917Z,98975.75
2023-04-29T13:40:27.881Z,98976.81
2023-04-29T13:43:04.950Z,98977.81
2023-04-29T13:45:38.988Z,98982.97
2023-04-29T13:48:17.023Z,98979.56
2023-04-29T13:53:51.194Z,98984.88
2023-04-29T14:01:26.125Z,99005.78
2023-04-29T14:03:52.915Z,99001.41
2023-04-29T14:06:19.678Z,99000.91
2023-04-29T14:08:46.538Z,99005.22
2023-04-29T14:11:13.375Z,99012.31
2023-04-29T14:13:40.090Z,99007.78
2023-04-29T14:16:07.241Z,99037.00
2023-04-29T14:18:33.968Z,99041.25
2023-04-29T14:21:00.653Z,99039.72
2023-04-29T14:23:27.301Z,99041.47
2023-04-29T14:25:58.923Z,99045.44
2023-04-29T14:28:34.360Z,99037.13
2023-04-29T14:31:01.014Z,99032.69
2023-04-29T14:33:27.706Z,99021.97
2023-04-29T14:35:54.430Z,99006.25
2023-04-29T14:38:21.138Z,99000.97
2023-04-29T14:40:47.800Z,98982.44
2023-04-29T14:43:14.501Z,98954.59
2023-04-29T14:45:41.743Z,98960.25
2023-04-29T14:48:09.684Z,98962.41
2023-04-29T14:50:36.745Z,98960.78
2023-04-29T14:53:05.632Z,98968.50
2023-04-29T14:55:32.336Z,98965.63
2023-04-29T14:57:58.953Z,98973.19
2023-04-29T15:00:25.633Z,98969.31
2023-04-29T15:02:55.451Z,98970.06
2023-04-29T15:05:22.161Z,98964.66
2023-04-29T15:07:48.840Z,98962.22
2023-04-29T15:10:15.548Z,98960.03
2023-04-29T15:12:42.388Z,98958.56
2023-04-29T15:15:10.074Z,98957.13
2023-04-29T15:17:36.858Z,98952.75
2023-04-29T15:20:03.807Z,98953.75
2023-04-29T15:22:30.716Z,98950.63
2023-04-29T15:24:57.410Z,98960.78
2023-04-29T15:27:24.089Z,98952.63
2023-04-29T15:29:54.426Z,98957.09
2023-04-29T15:32:21.465Z,98978.44
2023-04-29T15:34:48.218Z,98979.44
2023-04-29T15:37:15.027Z,98964.44
2023-04-29T15:39:41.714Z,98969.31
2023-04-29T15:42:09.543Z,98976.34
2023-04-29T15:44:36.434Z,98986.81
2023-04-29T15:47:03.864Z,98994.03
2023-04-29T15:49:31.082Z,98975.81
2023-04-29T15:51:57.751Z,98971.31
2023-04-29T15:54:24.597Z,98978.44
2023-04-29T15:56:51.258Z,98970.91
2023-04-29T15:59:17.971Z,98977.25
2023-04-29T16:01:44.966Z,98984.34
2023-04-29T16:04:11.821Z,99000.78
2023-04-29T16:06:38.644Z,99025.38
2023-04-29T16:09:05.500Z,99051.94
2023-04-29T16:11:32.617Z,99044.44
2023-04-29T16:13:59.341Z,99029.00
2023-04-29T16:16:26.118Z,99039.16
2023-04-29T16:18:52.836Z,99040.31
2023-04-29T16:21:19.741Z,99047.78
2023-04-29T16:23:46.599Z,99048.75
2023-04-29T16:26:13.760Z,99043.78
2023-04-29T16:28:40.699Z,99028.16
2023-04-29T16:31:07.730Z,99028.66
2023-04-29T16:33:36.620Z,99037.16
2023-04-29T16:36:03.678Z,99039.88
2023-04-29T16:38:30.346Z,99031.34
2023-04-29T16:40:57.028Z,99035.47
2023-04-29T16:43:23.780Z,99036.88
2023-04-29T16:45:51.533Z,99038.59
2023-04-29T16:48:18.468Z,99044.31
2023-04-29T16:50:45.124Z,99052.72
2023-04-29T16:53:11.785Z,99059.28
2023-04-29T16:55:38.438Z,99063.59
2023-04-29T16:58:05.370Z,99072.88
2023-04-29T17:00:32.032Z,99070.66
2023-04-29T17:02:59.663Z,99080.69
2023-04-29T17:05:27.674Z,99091.00
2023-04-29T17:07:55.340Z,99086.41
2023-04-29T17:10:22.022Z,99082.06
2023-04-29T17:12:49.004Z,99080.47
2023-04-29T17:15:16.548Z,99090.47
2023-04-29T17:17:43.231Z,99083.09
2023-04-29T17:20:10.619Z,99087.44
2023-04-29T17:22:37.255Z,99084.75
2023-04-29T17:25:04.235Z,99089.63
2023-04-29T17:27:31.084Z,99097.53
2023-04-29T17:29:57.764Z,99106.50
2023-04-29T17:32:28.598Z,99107.34
2023-04-29T17:34:59.289Z,99112.81
2023-04-29T17:37:25.962Z,99113.34
2023-04-29T17:39:53.082Z,99117.44
2023-04-29T17:42:23.078Z,99106.88
2023-04-29T17:44:50.117Z,99118.25
2023-04-29T17:47:17.460Z,99122.53
2023-04-29T17:49:44.444Z,99117.09
2023-04-29T17:52:11.168Z,99121.66
2023-04-29T17:54:41.530Z,99128.44
2023-04-29T17:57:08.799Z,99122.19
2023-04-29T17:59:35.711Z,99124.03
2023-04-29T18:02:02.354Z,99116.72
2023-04-29T18:04:29.020Z,99115.91
2023-04-29T18:06:55.734Z,99129.38
2023-04-29T18:09:22.380Z,99123.63
2023-04-29T18:11:49.346Z,99129.00
2023-04-29T18:14:16.510Z,99138.66
2023-04-29T18:16:43.218Z,99145.88
2023-04-29T18:19:09.906Z,99144.13
2023-04-29T18:21:36.552Z,99144.59
2023-04-29T18:24:03.195Z,99152.88
2023-04-29T18:26:29.952Z,99155.53
2023-04-29T18:28:56.739Z,99162.22
2023-04-29T18:31:25.265Z,99160.03
2023-04-29T18:33:52.025Z,99168.63
2023-04-29T18:36:21.360Z,99171.88
2023-04-29T18:38:48.025Z,99167.75
2023-04-29T18:41:14.633Z,99172.59
2023-04-29T18:43:41.356Z,99168.72
2023-04-29T18:46:08.268Z,99171.72
2023-04-29T18:48:36.572Z,99177.38
2023-04-29T18:51:05.997Z,99182.25
2023-04-29T18:53:33.069Z,99174.13
2023-04-29T18:55:59.841Z,99184.66
2023-04-29T18:58:27.337Z,99186.81
2023-04-29T19:00:54.321Z,99200.00
2023-04-29T19:03:21.327Z,99202.13
2023-04-29T19:05:48.274Z,99205.16
2023-04-29T19:08:17.749Z,99202.75
2023-04-29T19:10:45.033Z,99218.63
2023-04-29T19:13:11.791Z,99230.25
2023-04-29T19:15:38.951Z,99243.13
2023-04-29T19:18:05.751Z,99235.78
2023-04-29T19:20:32.529Z,99237.97
2023-04-29T19:22:59.180Z,99242.13
2023-04-29T19:25:28.630Z,99237.97
2023-04-29T19:27:55.306Z,99233.03
2023-04-29T19:30:21.992Z,99248.63
2023-04-29T19:32:48.876Z,99250.75
2023-04-29T19:35:15.638Z,99247.69
2023-04-29T19:37:42.378Z,99242.88
2023-04-29T19:40:10.925Z,99242.59
2023-04-29T19:42:38.100Z,99239.91
2023-04-29T19:45:09.430Z,99245.59
2023-04-29T19:47:36.358Z,99234.28
2023-04-29T19:50:03.355Z,99242.06
2023-04-29T19:52:30.080Z,99248.75
2023-04-29T19:54:57.102Z,99241.16
2023-04-29T19:57:23.782Z,99244.69
2023-04-29T19:59:50.525Z,99244.84
2023-04-29T20:02:17.213Z,99251.31
2023-04-29T20:04:43.826Z,99253.16
2023-04-29T20:07:10.547Z,99251.22
2023-04-29T20:09:37.761Z,99259.31
2023-04-29T20:12:04.765Z,99264.13
2023-04-29T20:14:32.920Z,99262.69
2023-04-29T20:17:00.707Z,99265.09
2023-04-29T20:19:27.723Z,99267.50
2023-04-29T20:21:54.416Z,99260.22
2023-04-29T20:24:21.102Z,99269.31
2023-04-29T20:26:47.805Z,99262.72
2023-04-29T20:29:14.529Z,99269.13
2023-04-29T20:31:41.357Z,99267.50
2023-04-29T20:34:08.074Z,99264.81
2023-04-29T20:36:34.726Z,99266.44
2023-04-29T20:39:01.540Z,99258.59
2023-04-29T20:41:29.019Z,99254.50
2023-04-29T20:43:58.596Z,99262.59
2023-04-29T20:46:27.473Z,99271.00
2023-04-29T20:48:54.086Z,99271.50
2023-04-29T20:51:21.005Z,99275.31
2023-04-29T20:53:48.122Z,99279.25
2023-04-29T20:56:14.724Z,99282.78
2023-04-29T20:58:41.301Z,99293.47
2023-04-29T21:01:08.309Z,99285.38
2023-04-29T21:03:35.120Z,99290.84
2023-04-29T21:06:01.928Z,99298.53
2023-04-29T21:08:28.679Z,99295.91
2023-04-29T21:10:55.372Z,99298.75
2023-04-29T21:13:22.079Z,99306.19
2023-04-29T21:15:48.717Z,99307.16
2023-04-29T21:18:15.529Z,99309.31
2023-04-29T21:20:42.231Z,99315.97
2023-04-29T21:23:08.886Z,99323.59
2023-04-29T21:25:35.564Z,99325.84
2023-04-29T21:28:02.308Z,99331.97
2023-04-29T21:30:29.031Z,99328.53
2023-04-29T21:32:56.371Z,99339.00
2023-04-29T21:35:25.701Z,99346.19
2023-04-29T21:37:52.366Z,99344.03
2023-04-29T21:40:19.101Z,99343.06
2023-04-29T21:42:45.937Z,99350.53
2023-04-29T21:45:14.925Z,99354.81
2023-04-29T21:47:41.990Z,99345.31
2023-04-29T21:50:09.512Z,99351.56
2023-04-29T21:52:36.228Z,99350.66
2023-04-29T21:55:04.192Z,99356.56
2023-04-29T21:57:42.590Z,99365.44
2023-04-29T22:00:20.977Z,99357.03
2023-04-29T22:02:47.806Z,99357.59
2023-04-29T22:05:14.587Z,99363.31
2023-04-29T22:07:41.421Z,99363.22
2023-04-29T22:10:08.612Z,99366.41
2023-04-29T22:12:37.196Z,99360.63
2023-04-29T22:15:06.965Z,99371.22
2023-04-29T22:17:35.849Z,99368.13
2023-04-29T22:20:02.881Z,99375.38
2023-04-29T22:22:29.641Z,99359.13
2023-04-29T22:24:56.459Z,99364.53
2023-04-29T22:27:23.259Z,99364.53
2023-04-29T22:29:49.894Z,99356.03
2023-04-29T22:32:16.656Z,99365.19
2023-04-29T22:34:43.322Z,99371.78
2023-04-29T22:37:10.035Z,99349.28
2023-04-29T22:39:36.680Z,99348.31
2023-04-29T22:42:04.718Z,99340.97
2023-04-29T22:44:31.425Z,99339.81
2023-04-29T22:46:58.287Z,99348.69
2023-04-29T22:49:27.824Z,99347.97
2023-04-29T22:51:54.601Z,99352.94
2023-04-29T22:54:21.213Z,99356.22
2023-04-29T22:56:47.849Z,99361.59
2023-04-29T22:59:15.340Z,99363.47
2023-04-29T23:01:42.062Z,99371.28
2023-04-29T23:04:08.813Z,99362.69
2023-04-29T23:06:35.559Z,99360.38
2023-04-29T23:09:02.278Z,99360.72
2023-04-29T23:11:28.897Z,99364.84
2023-04-29T23:13:55.504Z,99370.22
2023-04-29T23:16:22.313Z,99365.09
2023-04-29T23:18:48.976Z,99370.00
2023-04-29T23:21:15.644Z,99376.72
2023-04-29T23:23:42.297Z,99373.13
2023-04-29T23:26:09.133Z,99371.75
2023-04-29T23:28:35.772Z,99371.19
2023-04-29T23:31:02.441Z,99374.72
2023-04-29T23:33:29.145Z,99381.25
2023-04-29T23:35:55.891Z,99375.22
2023-04-29T23:38:22.528Z,99381.06
2023-04-29T23:40:49.208Z,99378.03
2023-04-29T23:43:16.001Z,99367.09
2023-04-29T23:45:46.268Z,99366.66
2023-04-29T23:48:13.454Z,99375.44
2023-04-29T23:50:40.154Z,99378.69
2023-04-29T23:53:06.852Z,99370.50
2023-04-29T23:55:36.797Z,99386.00
2023-04-29T23:58:03.603Z,99384.59
